createdAt,value
2018-09-14T00:00:58.945Z,72.60
2018-09-14T00:01:59.200Z,76.50
2018-09-14T00:02:58.927Z,80.30
2018-09-14T00:03:58.918Z,85.60
2018-09-14T00:04:58.902Z,83.70
2018-09-14T00:05:58.892Z,82.60
2018-09-14T00:06:58.886Z,80.80
2018-09-14T00:07:58.868Z,84.90
2018-09-14T00:08:59.138Z,86.30
2018-09-14T00:09:59.110Z,85.70
2018-09-14T00:10:58.840Z,82.80
2018-09-14T00:11:58.836Z,86.90
2018-09-14T00:12:58.814Z,87.50
2018-09-14T00:13:59.070Z,82.00
2018-09-14T00:14:58.799Z,91.30
2018-09-14T00:15:58.924Z,91.60
2018-09-14T00:16:59.053Z,92.60
2018-09-14T00:17:59.063Z,92.00
2018-09-14T00:18:58.752Z,95.90
2018-09-14T00:19:59.021Z,110.50
2018-09-14T00:20:58.735Z,98.70
2018-09-14T00:21:58.717Z,111.40
2018-09-14T00:22:58.828Z,94.20
2018-09-14T00:23:58.707Z,97.80
2018-09-14T00:24:58.693Z,95.90
2018-09-14T00:25:58.701Z,99.40
2018-09-14T00:26:58.733Z,104.00
2018-09-14T00:27:58.651Z,108.70
2018-09-14T00:28:58.650Z,121.50
2018-09-14T00:29:58.632Z,112.10
2018-09-14T00:30:58.618Z,113.90
2018-09-14T00:31:58.878Z,114.80
2018-09-14T00:32:58.593Z,112.10
2018-09-14T00:33:58.590Z,124.80
2018-09-14T00:34:58.581Z,127.00
2018-09-14T00:35:58.579Z,127.50
2018-09-14T00:36:58.632Z,135.90
2018-09-14T00:37:58.559Z,143.90
2018-09-14T00:38:58.533Z,141.50
2018-09-14T00:39:58.564Z,139.50
2018-09-14T00:40:58.510Z,132.00
2018-09-14T00:41:58.497Z,134.10
2018-09-14T00:42:58.498Z,137.90
2018-09-14T00:43:58.476Z,139.70
2018-09-14T00:44:58.485Z,148.80
2018-09-14T00:45:58.736Z,135.80
2018-09-14T00:46:58.444Z,136.50
2018-09-14T00:47:58.430Z,136.40
2018-09-14T00:48:58.687Z,128.20
2018-09-14T00:49:58.415Z,136.60
2018-09-14T00:50:58.403Z,136.00
2018-09-14T00:51:58.386Z,148.00
2018-09-14T00:52:58.494Z,137.00
2018-09-14T00:53:58.369Z,146.80
2018-09-14T00:54:58.356Z,126.40
2018-09-14T00:55:58.344Z,144.90
2018-09-14T00:56:58.332Z,147.60
2018-09-14T00:57:58.322Z,148.50
2018-09-14T00:58:58.316Z,169.90
2018-09-14T00:59:58.307Z,156.70
2018-09-14T01:00:59.352Z,164.30
2018-09-14T01:01:58.277Z,161.10
2018-09-14T01:02:58.265Z,148.50
2018-09-14T01:03:58.261Z,156.30
2018-09-14T01:04:58.260Z,160.90
2018-09-14T01:05:58.235Z,157.20
2018-09-14T01:06:58.230Z,161.90
2018-09-14T01:07:58.344Z,162.30
2018-09-14T01:08:58.205Z,155.70
2018-09-14T01:09:58.191Z,166.50
2018-09-14T01:10:58.179Z,151.20
2018-09-14T01:11:58.167Z,154.70
2018-09-14T01:12:58.420Z,174.50
2018-09-14T01:13:58.407Z,152.40
2018-09-14T01:14:58.138Z,151.90
2018-09-14T01:15:58.125Z,152.90
2018-09-14T01:16:58.383Z,158.70
2018-09-14T01:17:58.108Z,160.60
2018-09-14T01:18:58.092Z,156.40
2018-09-14T01:19:58.087Z,153.30
2018-09-14T01:20:58.071Z,155.90
2018-09-14T01:21:58.058Z,174.10
2018-09-14T01:22:58.049Z,161.10
2018-09-14T01:23:58.302Z,169.40
2018-09-14T01:24:58.032Z,157.80
2018-09-14T01:25:58.016Z,167.50
2018-09-14T01:26:58.005Z,159.50
2018-09-14T01:27:57.991Z,170.00
2018-09-14T01:28:57.986Z,163.20
2018-09-14T01:29:57.980Z,160.30
2018-09-14T01:30:57.964Z,162.80
2018-09-14T01:31:57.948Z,174.70
2018-09-14T01:32:57.940Z,169.40
2018-09-14T01:33:57.927Z,166.00
2018-09-14T01:34:58.199Z,160.00
2018-09-14T01:35:57.910Z,165.20
2018-09-14T01:36:57.905Z,159.00
2018-09-14T01:37:57.884Z,160.90
2018-09-14T01:38:57.872Z,170.40
2018-09-14T01:39:57.863Z,157.90
2018-09-14T01:40:57.866Z,159.60
2018-09-14T01:41:57.840Z,159.40
2018-09-14T01:42:57.842Z,157.80
2018-09-14T01:43:57.821Z,170.50
2018-09-14T01:44:57.818Z,180.40
2018-09-14T01:45:57.802Z,177.90
2018-09-14T01:46:58.305Z,175.20
2018-09-14T01:47:57.791Z,180.70
2018-09-14T01:48:57.764Z,178.30
2018-09-14T01:49:57.759Z,161.70
2018-09-14T01:50:57.744Z,164.50
2018-09-14T01:51:57.732Z,149.70
2018-09-14T01:52:57.980Z,161.10
2018-09-14T01:53:57.723Z,162.00
2018-09-14T01:54:57.700Z,155.30
2018-09-14T01:55:57.686Z,147.10
2018-09-14T01:56:57.674Z,137.00
2018-09-14T01:57:57.664Z,149.40
2018-09-14T01:58:57.655Z,162.50
2018-09-14T01:59:57.645Z,156.80
2018-09-14T02:00:57.667Z,143.50
2018-09-14T02:01:57.634Z,149.90
2018-09-14T02:02:57.622Z,163.70
2018-09-14T02:03:57.708Z,154.60
2018-09-14T02:04:57.614Z,158.90
2018-09-14T02:05:57.580Z,146.70
2018-09-14T02:06:57.566Z,159.10
2018-09-14T02:07:57.561Z,161.20
2018-09-14T02:08:57.546Z,155.30
2018-09-14T02:09:57.533Z,170.20
2018-09-14T02:10:57.525Z,172.20
2018-09-14T02:11:57.514Z,169.60
2018-09-14T02:12:57.500Z,175.60
2018-09-14T02:13:57.491Z,155.20
2018-09-14T02:14:57.740Z,146.90
2018-09-14T02:15:57.577Z,133.50
2018-09-14T02:16:57.460Z,144.60
2018-09-14T02:17:57.449Z,134.10
2018-09-14T02:18:57.438Z,135.00
2018-09-14T02:19:57.427Z,147.10
2018-09-14T02:20:57.416Z,165.20
2018-09-14T02:21:57.682Z,157.50
2018-09-14T02:22:57.496Z,157.50
2018-09-14T02:23:57.401Z,168.40
2018-09-14T02:24:57.371Z,165.90
2018-09-14T02:25:57.376Z,170.40
2018-09-14T02:26:57.361Z,166.20
2018-09-14T02:27:57.340Z,158.80
2018-09-14T02:28:57.325Z,164.50
2018-09-14T02:29:57.321Z,152.80
2018-09-14T02:30:57.602Z,170.90
2018-09-14T02:31:57.307Z,155.80
2018-09-14T02:32:57.289Z,165.70
2018-09-14T02:33:57.803Z,148.10
2018-09-14T02:34:57.260Z,149.30
2018-09-14T02:35:57.511Z,160.80
2018-09-14T02:36:57.238Z,158.30
2018-09-14T02:37:57.228Z,160.80
2018-09-14T02:38:57.275Z,150.30
2018-09-14T02:39:57.207Z,138.00
2018-09-14T02:40:57.196Z,150.40
2018-09-14T02:41:57.183Z,150.10
2018-09-14T02:42:57.172Z,142.10
2018-09-14T02:43:57.165Z,150.60
2018-09-14T02:44:57.155Z,139.10
2018-09-14T02:45:57.142Z,143.30
2018-09-14T02:46:57.392Z,140.50
2018-09-14T02:47:57.131Z,142.60
2018-09-14T02:48:57.124Z,143.70
2018-09-14T02:49:57.097Z,140.10
2018-09-14T02:50:57.488Z,132.50
2018-09-14T02:51:57.072Z,127.70
2018-09-14T02:52:57.073Z,143.70
2018-09-14T02:53:57.069Z,136.60
2018-09-14T02:54:57.039Z,149.00
2018-09-14T02:55:57.038Z,140.60
2018-09-14T02:56:57.017Z,134.80
2018-09-14T02:57:57.009Z,152.40
2018-09-14T02:58:57.000Z,147.80
2018-09-14T02:59:57.009Z,138.00
2018-09-14T03:00:56.983Z,141.50
2018-09-14T03:01:56.968Z,149.70
2018-09-14T03:02:57.216Z,149.30
2018-09-14T03:03:56.945Z,145.50
2018-09-14T03:04:56.938Z,141.30
2018-09-14T03:05:56.937Z,148.60
2018-09-14T03:06:56.912Z,152.50
2018-09-14T03:07:57.170Z,135.30
2018-09-14T03:08:56.948Z,145.90
2018-09-14T03:09:56.876Z,135.00
2018-09-14T03:10:56.879Z,135.60
2018-09-14T03:11:56.862Z,128.10
2018-09-14T03:12:56.842Z,129.90
2018-09-14T03:13:56.839Z,127.90
2018-09-14T03:14:56.833Z,129.70
2018-09-14T03:15:56.811Z,139.80
2018-09-14T03:16:57.318Z,127.40
2018-09-14T03:17:57.045Z,123.20
2018-09-14T03:18:56.775Z,129.90
2018-09-14T03:19:57.031Z,132.00
2018-09-14T03:20:56.757Z,142.20
2018-09-14T03:21:56.746Z,143.30
2018-09-14T03:22:56.758Z,137.90
2018-09-14T03:23:56.984Z,138.00
2018-09-14T03:24:56.713Z,153.00
2018-09-14T03:25:56.705Z,140.80
2018-09-14T03:26:56.981Z,137.90
2018-09-14T03:27:56.679Z,150.10
2018-09-14T03:28:56.686Z,144.10
2018-09-14T03:29:56.762Z,137.30
2018-09-14T03:30:56.775Z,139.00
2018-09-14T03:31:56.659Z,145.60
2018-09-14T03:32:56.742Z,150.50
2018-09-14T03:33:56.621Z,157.00
2018-09-14T03:34:56.606Z,149.10
2018-09-14T03:35:56.599Z,146.30
2018-09-14T03:36:56.581Z,128.50
2018-09-14T03:37:56.567Z,139.40
2018-09-14T03:38:56.568Z,136.30
2018-09-14T03:39:56.558Z,137.40
2018-09-14T03:40:56.550Z,130.80
2018-09-14T03:41:56.527Z,130.50
2018-09-14T03:42:56.517Z,139.50
2018-09-14T03:43:56.770Z,151.80
2018-09-14T03:44:56.493Z,141.80
2018-09-14T03:45:57.207Z,142.30
2018-09-14T03:46:56.471Z,136.40
2018-09-14T03:47:56.462Z,138.40
2018-09-14T03:48:56.459Z,142.80
2018-09-14T03:49:56.444Z,140.50
2018-09-14T03:50:56.427Z,141.30
2018-09-14T03:51:56.416Z,144.00
2018-09-14T03:52:56.404Z,150.70
2018-09-14T03:53:56.520Z,137.60
2018-09-14T03:54:56.393Z,143.70
2018-09-14T03:55:56.376Z,136.00
2018-09-14T03:56:56.375Z,142.70
2018-09-14T03:57:56.377Z,138.30
2018-09-14T03:58:56.342Z,129.30
2018-09-14T03:59:56.327Z,129.40
2018-09-14T04:00:56.426Z,119.80
2018-09-14T04:01:56.320Z,116.20
2018-09-14T04:02:56.296Z,119.00
2018-09-14T04:03:56.285Z,112.30
2018-09-14T04:04:56.277Z,124.80
2018-09-14T04:05:56.282Z,112.60
2018-09-14T04:06:56.255Z,129.20
2018-09-14T04:07:56.354Z,121.90
2018-09-14T04:08:56.244Z,124.50
2018-09-14T04:09:56.226Z,136.90
2018-09-14T04:10:56.487Z,126.80
2018-09-14T04:11:56.204Z,122.20
2018-09-14T04:12:56.190Z,123.20
2018-09-14T04:13:56.176Z,115.50
2018-09-14T04:14:56.169Z,120.40
2018-09-14T04:15:56.164Z,119.80
2018-09-14T04:16:56.406Z,121.00
2018-09-14T04:17:56.139Z,129.00
2018-09-14T04:18:56.733Z,133.60
2018-09-14T04:19:56.114Z,134.00
2018-09-14T04:20:56.185Z,124.90
2018-09-14T04:21:56.100Z,140.60
2018-09-14T04:22:56.080Z,132.10
2018-09-14T04:23:56.081Z,108.50
2018-09-14T04:24:56.077Z,116.50
2018-09-14T04:25:56.072Z,81.00
2018-09-14T04:26:56.035Z,77.20
2018-09-14T04:27:56.295Z,72.70
2018-09-14T04:28:56.162Z,94.00
2018-09-14T04:29:56.006Z,87.50
2018-09-14T04:30:56.259Z,86.00
2018-09-14T04:31:56.017Z,85.30
2018-09-14T04:32:55.969Z,98.70
2018-09-14T04:33:55.957Z,89.60
2018-09-14T04:34:55.947Z,89.00
2018-09-14T04:35:55.965Z,98.20
2018-09-14T04:36:55.934Z,90.50
2018-09-14T04:37:55.942Z,76.90
2018-09-14T04:38:55.903Z,72.70
2018-09-14T04:39:55.896Z,67.60
2018-09-14T04:40:55.885Z,81.30
2018-09-14T04:41:55.879Z,73.50
2018-09-14T04:42:56.126Z,80.00
2018-09-14T04:43:55.866Z,68.70
2018-09-14T04:44:55.844Z,70.60
2018-09-14T04:45:55.836Z,80.80
2018-09-14T04:46:55.938Z,74.60
2018-09-14T04:47:55.810Z,77.70
2018-09-14T04:48:55.794Z,71.40
2018-09-14T04:49:55.788Z,72.80
2018-09-14T04:50:56.101Z,66.60
2018-09-14T04:51:55.766Z,65.90
2018-09-14T04:52:55.788Z,62.80
2018-09-14T04:53:55.740Z,66.20
2018-09-14T04:54:55.993Z,69.00
2018-09-14T04:55:55.722Z,62.20
2018-09-14T04:56:55.814Z,63.80
2018-09-14T04:57:55.700Z,63.90
2018-09-14T04:58:55.683Z,63.50
2018-09-14T04:59:55.682Z,54.20
2018-09-14T05:00:55.675Z,67.40
2018-09-14T05:01:55.650Z,65.00
2018-09-14T05:02:55.764Z,55.50
2018-09-14T05:03:55.783Z,57.70
2018-09-14T05:04:55.644Z,60.00
2018-09-14T05:05:55.608Z,60.30
2018-09-14T05:06:55.623Z,58.60
2018-09-14T05:07:55.596Z,50.10
2018-09-14T05:08:55.843Z,54.50
2018-09-14T05:09:55.827Z,51.80
2018-09-14T05:10:55.559Z,55.30
2018-09-14T05:11:55.548Z,55.30
2018-09-14T05:12:55.692Z,52.30
2018-09-14T05:13:55.865Z,58.80
2018-09-14T05:14:55.512Z,54.70
2018-09-14T05:15:55.538Z,56.90
2018-09-14T05:16:55.494Z,55.90
2018-09-14T05:17:55.483Z,59.00
2018-09-14T05:18:55.466Z,63.50
2018-09-14T05:19:55.476Z,60.30
2018-09-14T05:20:55.466Z,61.30
2018-09-14T05:21:55.479Z,63.70
2018-09-14T05:22:55.444Z,59.50
2018-09-14T05:23:55.463Z,63.30
2018-09-14T05:24:55.503Z,50.90
2018-09-14T05:25:55.393Z,58.50
2018-09-14T05:26:55.380Z,54.50
2018-09-14T05:27:55.488Z,61.90
2018-09-14T05:28:55.380Z,50.50
2018-09-14T05:29:55.349Z,58.80
2018-09-14T05:30:55.342Z,53.50
2018-09-14T05:31:55.325Z,53.80
2018-09-14T05:32:55.318Z,49.30
2018-09-14T05:33:55.574Z,46.70
2018-09-14T05:34:55.295Z,59.00
2018-09-14T05:35:55.286Z,51.40
2018-09-14T05:36:55.324Z,48.00
2018-09-14T05:37:55.263Z,43.90
2018-09-14T05:38:55.258Z,48.20
2018-09-14T05:39:55.242Z,51.50
2018-09-14T05:40:55.232Z,52.40
2018-09-14T05:41:55.268Z,47.10
2018-09-14T05:42:55.245Z,52.20
2018-09-14T05:43:55.210Z,46.40
2018-09-14T05:44:55.192Z,43.10
2018-09-14T05:45:55.444Z,43.70
2018-09-14T05:46:55.170Z,44.50
2018-09-14T05:47:55.416Z,43.20
2018-09-14T05:48:55.140Z,47.80
2018-09-14T05:49:55.136Z,43.70
2018-09-14T05:50:55.118Z,46.50
2018-09-14T05:51:55.123Z,45.50
2018-09-14T05:52:55.110Z,44.60
2018-09-14T05:53:55.199Z,38.30
2018-09-14T05:54:55.076Z,42.10
2018-09-14T05:55:55.095Z,48.60
2018-09-14T05:56:55.559Z,47.00
2018-09-14T05:57:55.444Z,46.30
2018-09-14T05:58:55.030Z,39.50
2018-09-14T05:59:55.034Z,39.80
2018-09-14T06:00:55.289Z,40.20
2018-09-14T06:01:55.268Z,39.30
2018-09-14T06:02:54.993Z,39.40
2018-09-14T06:03:54.981Z,40.80
2018-09-14T06:04:54.970Z,45.10
2018-09-14T06:05:54.956Z,42.50
2018-09-14T06:06:54.974Z,38.60
2018-09-14T06:07:55.077Z,35.60
2018-09-14T06:08:54.927Z,40.50
2018-09-14T06:09:55.045Z,41.80
2018-09-14T06:10:54.911Z,37.50
2018-09-14T06:11:54.905Z,42.00
2018-09-14T06:12:54.892Z,40.60
2018-09-14T06:13:54.882Z,40.30
2018-09-14T06:14:54.860Z,36.40
2018-09-14T06:15:54.848Z,31.80
2018-09-14T06:16:55.163Z,32.50
2018-09-14T06:17:54.823Z,35.40
2018-09-14T06:18:56.321Z,34.80
2018-09-14T06:19:54.804Z,33.40
2018-09-14T06:20:54.794Z,36.80
2018-09-14T06:21:54.798Z,35.30
2018-09-14T06:22:55.119Z,34.80
2018-09-14T06:23:54.761Z,33.80
2018-09-14T06:24:54.753Z,36.80
2018-09-14T06:25:54.738Z,34.70
2018-09-14T06:26:54.734Z,35.00
2018-09-14T06:27:54.716Z,35.50
2018-09-14T06:28:54.722Z,35.50
2018-09-14T06:29:54.710Z,35.10
2018-09-14T06:30:54.946Z,36.50
2018-09-14T06:31:54.667Z,36.20
2018-09-14T06:32:54.670Z,33.80
2018-09-14T06:33:54.649Z,34.60
2018-09-14T06:34:54.643Z,32.30
2018-09-14T06:35:54.624Z,31.30
2018-09-14T06:36:54.630Z,32.60
2018-09-14T06:37:54.603Z,32.40
2018-09-14T06:38:54.594Z,34.30
2018-09-14T06:39:54.695Z,34.90
2018-09-14T06:40:54.569Z,34.80
2018-09-14T06:41:54.565Z,32.60
2018-09-14T06:42:54.571Z,34.30
2018-09-14T06:43:54.541Z,33.60
2018-09-14T06:44:54.937Z,32.80
2018-09-14T06:45:54.520Z,36.90
2018-09-14T06:46:54.506Z,34.10
2018-09-14T06:47:54.500Z,34.00
2018-09-14T06:48:54.494Z,36.60
2018-09-14T06:49:54.471Z,31.90
2018-09-14T06:50:54.460Z,32.60
2018-09-14T06:51:54.479Z,32.20
2018-09-14T06:52:54.437Z,34.00
2018-09-14T06:53:54.703Z,32.40
2018-09-14T06:54:54.680Z,31.30
2018-09-14T06:55:54.406Z,30.40
2018-09-14T06:56:55.618Z,32.60
2018-09-14T06:57:54.427Z,34.70
2018-09-14T06:58:54.388Z,33.00
2018-09-14T06:59:54.741Z,30.60
2018-09-14T07:00:54.369Z,31.50
2018-09-14T07:01:54.502Z,27.30
2018-09-14T07:02:54.330Z,26.50
2018-09-14T07:03:54.638Z,29.30
2018-09-14T07:04:54.561Z,29.70
2018-09-14T07:05:54.305Z,29.20
2018-09-14T07:06:54.319Z,27.90
2018-09-14T07:07:54.281Z,27.30
2018-09-14T07:08:54.352Z,29.50
2018-09-14T07:09:54.256Z,27.70
2018-09-14T07:10:54.251Z,30.90
2018-09-14T07:11:54.231Z,26.90
2018-09-14T07:12:56.155Z,27.80
2018-09-14T07:13:54.222Z,28.90
2018-09-14T07:14:56.392Z,26.00
2018-09-14T07:15:54.192Z,27.90
2018-09-14T07:16:54.177Z,26.60
2018-09-14T07:17:54.174Z,28.90
2018-09-14T07:18:54.158Z,29.00
2018-09-14T07:19:54.153Z,26.70
2018-09-14T07:20:54.133Z,29.00
2018-09-14T07:21:54.215Z,29.20
2018-09-14T07:22:54.249Z,27.50
2018-09-14T07:23:54.109Z,28.70
2018-09-14T07:24:54.494Z,27.90
2018-09-14T07:25:54.363Z,28.30
2018-09-14T07:26:54.072Z,32.50
2018-09-14T07:27:54.088Z,29.30
2018-09-14T07:28:54.070Z,26.50
2018-09-14T07:29:54.300Z,28.20
2018-09-14T07:30:54.727Z,28.60
2018-09-14T07:31:54.099Z,28.30
2018-09-14T07:32:54.012Z,26.90
2018-09-14T07:33:53.990Z,27.90
2018-09-14T07:34:54.140Z,27.90
2018-09-14T07:35:53.975Z,28.40
2018-09-14T07:36:53.953Z,29.30
2018-09-14T07:37:54.814Z,27.10
2018-09-14T07:38:53.939Z,27.10
2018-09-14T07:39:53.973Z,27.10
2018-09-14T07:40:53.957Z,32.40
2018-09-14T07:41:56.662Z,29.00
2018-09-14T07:42:54.047Z,27.60
2018-09-14T07:43:54.010Z,25.40
2018-09-14T07:44:54.143Z,27.70
2018-09-14T07:45:53.989Z,27.90
2018-09-14T07:46:54.005Z,26.30
2018-09-14T07:47:54.103Z,27.00
2018-09-14T07:48:53.873Z,28.50
2018-09-14T07:49:53.890Z,28.60
2018-09-14T07:50:53.843Z,30.90
2018-09-14T07:51:53.794Z,30.60
2018-09-14T07:52:53.814Z,27.90
2018-09-14T07:53:54.065Z,29.80
2018-09-14T07:54:53.773Z,26.10
2018-09-14T07:55:53.749Z,28.50
2018-09-14T07:56:53.745Z,29.00
2018-09-14T07:57:53.723Z,26.90
2018-09-14T07:58:54.276Z,28.10
2018-09-14T07:59:53.774Z,26.30
2018-09-14T08:00:53.692Z,27.20
2018-09-14T08:01:53.728Z,30.60
2018-09-14T08:02:53.787Z,30.10
2018-09-14T08:03:53.661Z,33.20
2018-09-14T08:04:53.653Z,29.00
2018-09-14T08:05:53.656Z,27.30
2018-09-14T08:06:53.645Z,32.70
2018-09-14T08:07:53.626Z,32.40
2018-09-14T08:08:53.603Z,32.20
2018-09-14T08:09:53.604Z,31.10
2018-09-14T08:10:53.600Z,32.70
2018-09-14T08:11:53.620Z,34.20
2018-09-14T08:12:53.839Z,35.20
2018-09-14T08:13:53.805Z,34.50
2018-09-14T08:14:53.557Z,33.00
2018-09-14T08:15:58.866Z,35.50
2018-09-14T08:16:53.533Z,30.20
2018-09-14T08:17:53.502Z,33.80
2018-09-14T08:18:54.006Z,31.20
2018-09-14T08:19:53.499Z,30.40
2018-09-14T08:20:53.550Z,33.90
2018-09-14T08:21:53.662Z,34.00
2018-09-14T08:22:53.496Z,34.30
2018-09-14T08:23:53.879Z,35.10
2018-09-14T08:24:53.434Z,34.90
2018-09-14T08:25:53.688Z,35.20
2018-09-14T08:26:53.433Z,31.00
2018-09-14T08:27:53.415Z,31.40
2018-09-14T08:28:53.386Z,30.90
2018-09-14T08:29:53.390Z,36.10
2018-09-14T08:30:53.723Z,32.80
2018-09-14T08:31:53.369Z,30.40
2018-09-14T08:32:53.341Z,32.60
2018-09-14T08:33:53.652Z,31.00
2018-09-14T08:34:53.333Z,30.10
2018-09-14T08:35:53.307Z,30.90
2018-09-14T08:36:53.432Z,32.40
2018-09-14T08:37:53.295Z,29.70
2018-09-14T08:38:53.291Z,31.10
2018-09-14T08:39:53.277Z,30.60
2018-09-14T08:40:53.513Z,29.90
2018-09-14T08:41:53.635Z,27.30
2018-09-14T08:42:53.365Z,29.40
2018-09-14T08:43:53.540Z,28.90
2018-09-14T08:44:53.475Z,26.60
2018-09-14T08:45:53.199Z,28.60
2018-09-14T08:46:53.192Z,24.50
2018-09-14T08:47:53.255Z,26.60
2018-09-14T08:48:53.215Z,26.60
2018-09-14T08:49:53.701Z,26.20
2018-09-14T08:50:53.419Z,28.10
2018-09-14T08:51:53.265Z,27.30
2018-09-14T08:52:53.142Z,25.10
2018-09-14T08:53:53.257Z,23.80
2018-09-14T08:54:53.106Z,22.70
2018-09-14T08:55:53.134Z,23.30
2018-09-14T08:56:53.079Z,22.70
2018-09-14T08:57:53.091Z,25.10
2018-09-14T08:58:53.628Z,22.20
2018-09-14T08:59:53.069Z,20.00
2018-09-14T09:00:53.094Z,18.80
2018-09-14T09:01:53.025Z,23.20
2018-09-14T09:02:53.009Z,23.30
2018-09-14T09:03:53.150Z,22.20
2018-09-14T09:04:52.995Z,20.20
2018-09-14T09:05:52.991Z,19.90
2018-09-14T09:06:53.255Z,22.00
2018-09-14T09:07:53.030Z,19.80
2018-09-14T09:08:53.232Z,17.70
2018-09-14T09:09:52.942Z,18.90
2018-09-14T09:10:53.389Z,20.00
2018-09-14T09:11:53.035Z,21.80
2018-09-14T09:12:52.912Z,19.20
2018-09-14T09:13:53.023Z,16.40
2018-09-14T09:14:52.903Z,15.40
2018-09-14T09:15:53.136Z,20.00
2018-09-14T09:16:52.878Z,16.30
2018-09-14T09:17:53.238Z,16.50
2018-09-14T09:18:52.841Z,16.20
2018-09-14T09:19:52.892Z,19.80
2018-09-14T09:20:53.078Z,16.40
2018-09-14T09:21:52.806Z,15.80
2018-09-14T09:22:52.794Z,18.00
2018-09-14T09:23:52.801Z,18.50
2018-09-14T09:24:54.972Z,16.40
2018-09-14T09:25:52.762Z,20.40
2018-09-14T09:26:52.753Z,19.60
2018-09-14T09:27:52.785Z,20.10
2018-09-14T09:28:52.746Z,20.50
2018-09-14T09:29:52.978Z,22.00
2018-09-14T09:30:52.716Z,18.50
2018-09-14T09:31:52.699Z,20.20
2018-09-14T09:32:52.685Z,20.10
2018-09-14T09:33:52.952Z,19.80
2018-09-14T09:34:52.659Z,18.90
2018-09-14T09:35:52.670Z,19.40
2018-09-14T09:36:52.643Z,18.80
2018-09-14T09:37:52.637Z,17.30
2018-09-14T09:38:52.619Z,19.50
2018-09-14T09:39:52.738Z,18.20
2018-09-14T09:40:53.073Z,16.30
2018-09-14T09:41:52.582Z,18.80
2018-09-14T09:42:53.672Z,16.60
2018-09-14T09:43:52.988Z,14.80
2018-09-14T09:44:52.818Z,17.50
2018-09-14T09:45:52.550Z,18.40
2018-09-14T09:46:52.532Z,18.10
2018-09-14T09:47:52.519Z,18.40
2018-09-14T09:48:52.601Z,18.20
2018-09-14T09:49:52.505Z,20.30
2018-09-14T09:50:52.601Z,14.70
2018-09-14T09:51:52.501Z,14.90
2018-09-14T09:52:52.610Z,17.00
2018-09-14T09:53:52.456Z,17.50
2018-09-14T09:54:52.449Z,15.10
2018-09-14T09:55:52.466Z,14.50
2018-09-14T09:56:52.992Z,19.20
2018-09-14T09:57:52.413Z,16.00
2018-09-14T09:58:52.602Z,13.00
2018-09-14T09:59:52.412Z,14.20
2018-09-14T10:00:52.393Z,14.50
2018-09-14T10:01:52.638Z,15.30
2018-09-14T10:02:52.513Z,14.90
2018-09-14T10:03:52.403Z,14.40
2018-09-14T10:04:52.352Z,20.10
2018-09-14T10:05:52.329Z,17.00
2018-09-14T10:06:52.337Z,17.40
2018-09-14T10:07:52.560Z,16.00
2018-09-14T10:08:52.297Z,20.20
2018-09-14T10:09:52.421Z,18.30
2018-09-14T10:10:52.282Z,16.20
2018-09-14T10:11:52.279Z,18.70
2018-09-14T10:12:52.418Z,16.90
2018-09-14T10:13:52.502Z,16.80
2018-09-14T10:14:52.257Z,17.30
2018-09-14T10:15:52.231Z,15.50
2018-09-14T10:16:52.228Z,15.50
2018-09-14T10:17:52.727Z,14.70
2018-09-14T10:18:52.188Z,16.00
2018-09-14T10:19:52.202Z,16.10
2018-09-14T10:20:52.379Z,18.40
2018-09-14T10:21:52.217Z,16.40
2018-09-14T10:22:52.152Z,16.10
2018-09-14T10:23:52.148Z,16.10
2018-09-14T10:24:52.392Z,17.50
2018-09-14T10:25:52.137Z,15.70
2018-09-14T10:26:52.163Z,16.80
2018-09-14T10:27:52.126Z,18.50
2018-09-14T10:28:52.078Z,18.00
2018-09-14T10:29:52.105Z,17.80
2018-09-14T10:30:52.052Z,16.70
2018-09-14T10:31:52.318Z,16.60
2018-09-14T10:32:52.030Z,17.30
2018-09-14T10:33:52.319Z,19.40
2018-09-14T10:34:52.354Z,15.70
2018-09-14T10:35:52.017Z,20.30
2018-09-14T10:36:52.034Z,19.40
2018-09-14T10:37:52.242Z,22.40
2018-09-14T10:38:51.964Z,18.80
2018-09-14T10:39:51.957Z,18.70
2018-09-14T10:40:52.105Z,18.50
2018-09-14T10:41:51.940Z,19.00
2018-09-14T10:42:52.150Z,20.70
2018-09-14T10:43:51.909Z,18.40
2018-09-14T10:44:52.172Z,19.90
2018-09-14T10:45:51.928Z,18.90
2018-09-14T10:46:51.935Z,19.70
2018-09-14T10:47:51.883Z,21.10
2018-09-14T10:48:51.960Z,21.30
2018-09-14T10:49:52.336Z,18.80
2018-09-14T10:50:52.337Z,21.00
2018-09-14T10:51:51.840Z,20.60
2018-09-14T10:52:51.821Z,18.90
2018-09-14T10:53:51.801Z,16.30
2018-09-14T10:54:51.818Z,19.20
2018-09-14T10:55:51.778Z,17.10
2018-09-14T10:56:51.805Z,16.70
2018-09-14T10:57:51.778Z,17.40
2018-09-14T10:58:51.772Z,17.30
2018-09-14T10:59:52.020Z,17.70
2018-09-14T11:00:51.742Z,16.00
2018-09-14T11:01:51.737Z,17.80
2018-09-14T11:02:51.972Z,16.10
2018-09-14T11:03:51.703Z,15.10
2018-09-14T11:04:51.684Z,19.10
2018-09-14T11:05:51.962Z,16.90
2018-09-14T11:06:51.717Z,15.60
2018-09-14T11:07:51.917Z,14.60
2018-09-14T11:08:51.899Z,17.40
2018-09-14T11:09:51.670Z,18.90
2018-09-14T11:10:51.613Z,19.70
2018-09-14T11:11:51.631Z,16.30
2018-09-14T11:12:51.597Z,15.80
2018-09-14T11:13:51.843Z,16.30
2018-09-14T11:14:51.702Z,17.30
2018-09-14T11:15:51.580Z,17.00
2018-09-14T11:16:51.572Z,16.50
2018-09-14T11:17:51.809Z,16.00
2018-09-14T11:18:51.584Z,17.10
2018-09-14T11:19:51.542Z,16.10
2018-09-14T11:20:51.506Z,18.20
2018-09-14T11:21:51.489Z,17.30
2018-09-14T11:22:51.757Z,18.40
2018-09-14T11:23:51.471Z,18.80
2018-09-14T11:24:51.588Z,17.50
2018-09-14T11:25:51.460Z,15.60
2018-09-14T11:26:51.437Z,17.30
2018-09-14T11:27:51.479Z,13.80
2018-09-14T11:28:53.074Z,14.80
2018-09-14T11:29:51.409Z,15.10
2018-09-14T11:30:51.390Z,16.30
2018-09-14T11:31:51.396Z,14.50
2018-09-14T11:32:51.376Z,14.80
2018-09-14T11:33:51.373Z,13.10
2018-09-14T11:34:51.353Z,13.70
2018-09-14T11:35:51.342Z,11.00
2018-09-14T11:36:51.344Z,10.70
2018-09-14T11:37:51.417Z,12.50
2018-09-14T11:38:51.347Z,11.20
2018-09-14T11:39:51.310Z,8.90
2018-09-14T11:40:51.283Z,9.10
2018-09-14T11:41:51.283Z,8.20
2018-09-14T11:42:51.266Z,8.60
2018-09-14T11:43:51.249Z,9.10
2018-09-14T11:44:51.416Z,13.30
2018-09-14T11:45:51.543Z,11.10
2018-09-14T11:46:51.218Z,13.80
2018-09-14T11:47:51.221Z,14.60
2018-09-14T11:48:51.240Z,14.10
2018-09-14T11:49:51.183Z,14.20
2018-09-14T11:50:51.175Z,16.10
2018-09-14T11:51:51.240Z,16.50
2018-09-14T11:52:51.175Z,15.40
2018-09-14T11:53:51.145Z,14.40
2018-09-14T11:54:51.151Z,15.30
2018-09-14T11:55:51.266Z,13.50
2018-09-14T11:56:51.112Z,14.60
2018-09-14T11:57:51.108Z,15.80
2018-09-14T11:58:51.945Z,11.50
2018-09-14T11:59:51.344Z,9.80
2018-09-14T12:00:51.082Z,13.00
2018-09-14T12:01:51.072Z,12.30
2018-09-14T12:02:51.070Z,10.30
2018-09-14T12:03:52.035Z,11.50
2018-09-14T12:04:51.023Z,8.90
2018-09-14T12:05:51.135Z,8.60
2018-09-14T12:06:51.013Z,9.40
2018-09-14T12:07:51.264Z,11.60
2018-09-14T12:08:51.122Z,8.90
2018-09-14T12:09:50.979Z,9.90
2018-09-14T12:10:51.354Z,8.30
2018-09-14T12:11:50.970Z,11.10
2018-09-14T12:12:50.975Z,12.20
2018-09-14T12:13:51.002Z,9.90
2018-09-14T12:14:50.923Z,13.40
2018-09-14T12:15:51.505Z,10.80
2018-09-14T12:16:51.246Z,12.10
2018-09-14T12:17:50.921Z,11.00
2018-09-14T12:18:50.895Z,11.40
2018-09-14T12:19:50.899Z,12.40
2018-09-14T12:20:50.911Z,11.70
2018-09-14T12:21:50.845Z,11.30
2018-09-14T12:22:50.846Z,10.70
2018-09-14T12:23:50.824Z,9.00
2018-09-14T12:24:50.812Z,8.50
2018-09-14T12:25:50.799Z,5.60
2018-09-14T12:26:50.786Z,4.80
2018-09-14T12:27:50.777Z,9.30
2018-09-14T12:28:50.920Z,12.80
2018-09-14T12:29:50.768Z,12.30
2018-09-14T12:30:51.016Z,12.80
2018-09-14T12:31:51.003Z,15.80
2018-09-14T12:32:50.722Z,13.90
2018-09-14T12:33:50.716Z,13.50
2018-09-14T12:34:50.712Z,13.70
2018-09-14T12:35:50.703Z,15.50
2018-09-14T12:36:50.677Z,14.50
2018-09-14T12:37:50.684Z,14.60
2018-09-14T12:38:50.678Z,15.10
2018-09-14T12:39:51.059Z,13.50
2018-09-14T12:40:50.641Z,14.10
2018-09-14T12:41:50.630Z,15.20
2018-09-14T12:42:50.612Z,14.50
2018-09-14T12:43:50.615Z,13.00
2018-09-14T12:44:50.588Z,14.50
2018-09-14T12:45:50.594Z,11.50